sensor_id;sensor_type;location;lat;lon;timestamp;temperature;humidity
3416;DHT22;1721;51.238;9.562;2023-07-02T00:00:07;18.70;99.90
3416;DHT22;1721;51.238;9.562;2023-07-02T00:02:34;18.70;99.90
3416;DHT22;1721;51.238;9.562;2023-07-02T00:04:59;18.70;99.90
3416;DHT22;1721;51.238;9.562;2023-07-02T00:07:25;18.70;99.90
3416;DHT22;1721;51.238;9.562;2023-07-02T00:09:53;18.70;99.90
3416;DHT22;1721;51.238;9.562;2023-07-02T00:12:19;18.80;99.90
3416;DHT22;1721;51.238;9.562;2023-07-02T00:14:45;18.70;99.90
3416;DHT22;1721;51.238;9.562;2023-07-02T00:17:10;18.80;99.90
3416;DHT22;1721;51.238;9.562;2023-07-02T00:19:39;18.80;99.90
3416;DHT22;1721;51.238;9.562;2023-07-02T00:22:08;18.80;99.90
3416;DHT22;1721;51.238;9.562;2023-07-02T00:24:35;18.80;99.90
3416;DHT22;1721;51.238;9.562;2023-07-02T00:27:00;18.80;99.90
3416;DHT22;1721;51.238;9.562;2023-07-02T00:29:26;18.70;99.90
3416;DHT22;1721;51.238;9.562;2023-07-02T00:31:51;18.70;99.90
3416;DHT22;1721;51.238;9.562;2023-07-02T00:34:18;18.60;99.90
3416;DHT22;1721;51.238;9.562;2023-07-02T00:36:44;18.60;99.90
3416;DHT22;1721;51.238;9.562;2023-07-02T00:39:10;18.60;99.90
3416;DHT22;1721;51.238;9.562;2023-07-02T00:41:37;18.50;99.90
3416;DHT22;1721;51.238;9.562;2023-07-02T00:44:03;18.50;99.90
3416;DHT22;1721;51.238;9.562;2023-07-02T00:46:29;18.60;99.90
3416;DHT22;1721;51.238;9.562;2023-07-02T00:48:56;18.60;99.90
3416;DHT22;1721;51.238;9.562;2023-07-02T00:51:25;18.60;99.90
3416;DHT22;1721;51.238;9.562;2023-07-02T00:53:53;18.60;99.90
3416;DHT22;1721;51.238;9.562;2023-07-02T00:56:20;18.60;99.90
3416;DHT22;1721;51.238;9.562;2023-07-02T00:58:47;18.70;99.90
3416;DHT22;1721;51.238;9.562;2023-07-02T01:01:18;18.60;99.90
3416;DHT22;1721;51.238;9.562;2023-07-02T01:04:10;18.60;99.90
3416;DHT22;1721;51.238;9.562;2023-07-02T01:06:38;18.60;99.90
3416;DHT22;1721;51.238;9.562;2023-07-02T01:09:07;18.60;99.90
3416;DHT22;1721;51.238;9.562;2023-07-02T01:14:25;18.60;99.90
3416;DHT22;1721;51.238;9.562;2023-07-02T01:16:52;18.60;99.90
3416;DHT22;1721;51.238;9.562;2023-07-02T01:19:21;18.60;99.90
3416;DHT22;1721;51.238;9.562;2023-07-02T01:21:49;18.60;99.90
3416;DHT22;1721;51.238;9.562;2023-07-02T01:24:16;18.40;99.90
3416;DHT22;1721;51.238;9.562;2023-07-02T01:26:41;18.30;99.90
3416;DHT22;1721;51.238;9.562;2023-07-02T01:29:19;18.30;99.90
3416;DHT22;1721;51.238;9.562;2023-07-02T01:31:45;18.30;99.90
3416;DHT22;1721;51.238;9.562;2023-07-02T01:34:12;18.40;99.90
3416;DHT22;1721;51.238;9.562;2023-07-02T01:36:38;18.40;99.90
3416;DHT22;1721;51.238;9.562;2023-07-02T01:39:04;18.30;99.90
3416;DHT22;1721;51.238;9.562;2023-07-02T01:41:31;18.40;99.90
3416;DHT22;1721;51.238;9.562;2023-07-02T01:43:56;18.40;99.90
3416;DHT22;1721;51.238;9.562;2023-07-02T01:46:22;18.30;99.90
3416;DHT22;1721;51.238;9.562;2023-07-02T01:48:47;18.30;99.90
3416;DHT22;1721;51.238;9.562;2023-07-02T01:51:13;18.20;99.90
3416;DHT22;1721;51.238;9.562;2023-07-02T01:53:39;18.30;99.90
3416;DHT22;1721;51.238;9.562;2023-07-02T01:56:05;18.30;99.90
3416;DHT22;1721;51.238;9.562;2023-07-02T01:58:30;18.30;99.90
3416;DHT22;1721;51.238;9.562;2023-07-02T02:00:56;18.30;99.90
3416;DHT22;1721;51.238;9.562;2023-07-02T02:03:22;18.30;99.90
3416;DHT22;1721;51.238;9.562;2023-07-02T02:05:48;18.40;99.90
3416;DHT22;1721;51.238;9.562;2023-07-02T02:08:13;18.30;99.90
3416;DHT22;1721;51.238;9.562;2023-07-02T02:10:39;18.20;99.90
3416;DHT22;1721;51.238;9.562;2023-07-02T02:13:05;18.10;99.90
3416;DHT22;1721;51.238;9.562;2023-07-02T02:15:30;18.10;99.90
3416;DHT22;1721;51.238;9.562;2023-07-02T02:17:56;18.20;99.90
3416;DHT22;1721;51.238;9.562;2023-07-02T02:20:21;18.10;99.90
3416;DHT22;1721;51.238;9.562;2023-07-02T02:22:47;18.10;99.90
3416;DHT22;1721;51.238;9.562;2023-07-02T02:25:12;18.10;99.90
3416;DHT22;1721;51.238;9.562;2023-07-02T02:27:38;18.10;99.90
3416;DHT22;1721;51.238;9.562;2023-07-02T02:30:04;18.10;99.90
3416;DHT22;1721;51.238;9.562;2023-07-02T02:32:30;18.00;99.90
3416;DHT22;1721;51.238;9.562;2023-07-02T02:34:56;18.00;99.90
3416;DHT22;1721;51.238;9.562;2023-07-02T02:37:21;18.00;99.90
3416;DHT22;1721;51.238;9.562;2023-07-02T02:39:48;18.00;99.90
3416;DHT22;1721;51.238;9.562;2023-07-02T02:42:14;18.10;99.90
3416;DHT22;1721;51.238;9.562;2023-07-02T02:44:39;18.10;99.90
3416;DHT22;1721;51.238;9.562;2023-07-02T02:47:05;18.10;99.90
3416;DHT22;1721;51.238;9.562;2023-07-02T02:49:31;18.10;99.90
3416;DHT22;1721;51.238;9.562;2023-07-02T02:51:56;18.10;99.90
3416;DHT22;1721;51.238;9.562;2023-07-02T02:54:22;18.10;99.90
3416;DHT22;1721;51.238;9.562;2023-07-02T02:56:47;18.10;99.90
3416;DHT22;1721;51.238;9.562;2023-07-02T02:59:13;18.10;99.90
3416;DHT22;1721;51.238;9.562;2023-07-02T03:01:38;18.00;99.90
3416;DHT22;1721;51.238;9.562;2023-07-02T03:04:04;18.00;99.90
3416;DHT22;1721;51.238;9.562;2023-07-02T03:06:33;17.90;99.90
3416;DHT22;1721;51.238;9.562;2023-07-02T03:08:59;17.80;99.90
3416;DHT22;1721;51.238;9.562;2023-07-02T03:11:25;17.80;99.90
3416;DHT22;1721;51.238;9.562;2023-07-02T03:13:50;17.80;99.90
3416;DHT22;1721;51.238;9.562;2023-07-02T03:16:16;17.70;99.90
3416;DHT22;1721;51.238;9.562;2023-07-02T03:18:41;17.70;99.90
3416;DHT22;1721;51.238;9.562;2023-07-02T03:21:07;17.50;99.90
3416;DHT22;1721;51.238;9.562;2023-07-02T03:23:32;17.40;99.90
3416;DHT22;1721;51.238;9.562;2023-07-02T03:25:58;17.40;99.90
3416;DHT22;1721;51.238;9.562;2023-07-02T03:28:23;17.40;99.90
3416;DHT22;1721;51.238;9.562;2023-07-02T03:30:49;17.40;99.90
3416;DHT22;1721;51.238;9.562;2023-07-02T03:33:15;17.40;99.90
3416;DHT22;1721;51.238;9.562;2023-07-02T03:35:40;17.30;99.90
3416;DHT22;1721;51.238;9.562;2023-07-02T03:38:06;17.30;99.90
3416;DHT22;1721;51.238;9.562;2023-07-02T03:40:31;17.30;99.90
3416;DHT22;1721;51.238;9.562;2023-07-02T03:42:57;17.20;99.90
3416;DHT22;1721;51.238;9.562;2023-07-02T03:45:22;17.00;99.90
3416;DHT22;1721;51.238;9.562;2023-07-02T03:47:48;16.80;99.90
3416;DHT22;1721;51.238;9.562;2023-07-02T03:50:13;16.70;99.90
3416;DHT22;1721;51.238;9.562;2023-07-02T03:52:39;16.70;99.90
3416;DHT22;1721;51.238;9.562;2023-07-02T03:55:05;16.50;99.90
3416;DHT22;1721;51.238;9.562;2023-07-02T03:57:31;16.40;99.90
3416;DHT22;1721;51.238;9.562;2023-07-02T03:59:56;16.40;99.90
3416;DHT22;1721;51.238;9.562;2023-07-02T04:02:22;16.40;99.90
3416;DHT22;1721;51.238;9.562;2023-07-02T04:04:48;16.40;99.90
3416;DHT22;1721;51.238;9.562;2023-07-02T04:07:13;16.30;99.90
3416;DHT22;1721;51.238;9.562;2023-07-02T04:09:39;16.40;99.90
3416;DHT22;1721;51.238;9.562;2023-07-02T04:12:05;16.40;99.90
3416;DHT22;1721;51.238;9.562;2023-07-02T04:14:30;16.50;99.90
3416;DHT22;1721;51.238;9.562;2023-07-02T04:16:56;16.60;99.90
3416;DHT22;1721;51.238;9.562;2023-07-02T04:19:21;16.60;99.90
3416;DHT22;1721;51.238;9.562;2023-07-02T04:21:47;16.60;99.90
3416;DHT22;1721;51.238;9.562;2023-07-02T04:24:12;16.70;99.90
3416;DHT22;1721;51.238;9.562;2023-07-02T04:26:38;16.60;99.90
3416;DHT22;1721;51.238;9.562;2023-07-02T04:29:08;16.70;99.90
3416;DHT22;1721;51.238;9.562;2023-07-02T04:31:34;16.70;99.90
3416;DHT22;1721;51.238;9.562;2023-07-02T04:33:59;16.70;99.90
3416;DHT22;1721;51.238;9.562;2023-07-02T04:36:25;16.80;99.90
3416;DHT22;1721;51.238;9.562;2023-07-02T04:38:51;16.70;99.90
3416;DHT22;1721;51.238;9.562;2023-07-02T04:41:18;16.70;99.90
3416;DHT22;1721;51.238;9.562;2023-07-02T04:43:43;16.60;99.90
3416;DHT22;1721;51.238;9.562;2023-07-02T04:46:10;16.50;99.90
3416;DHT22;1721;51.238;9.562;2023-07-02T04:48:38;16.50;99.90
3416;DHT22;1721;51.238;9.562;2023-07-02T04:51:03;16.50;99.90
3416;DHT22;1721;51.238;9.562;2023-07-02T04:53:29;16.50;99.90
3416;DHT22;1721;51.238;9.562;2023-07-02T04:55:55;16.60;99.90
3416;DHT22;1721;51.238;9.562;2023-07-02T04:58:22;16.70;99.90
3416;DHT22;1721;51.238;9.562;2023-07-02T05:00:47;16.80;99.90
3416;DHT22;1721;51.238;9.562;2023-07-02T05:03:13;16.80;99.90
3416;DHT22;1721;51.238;9.562;2023-07-02T05:05:38;16.90;99.90
3416;DHT22;1721;51.238;9.562;2023-07-02T05:08:04;16.80;99.90
3416;DHT22;1721;51.238;9.562;2023-07-02T05:10:30;16.90;99.90
3416;DHT22;1721;51.238;9.562;2023-07-02T05:12:55;17.00;99.90
3416;DHT22;1721;51.238;9.562;2023-07-02T05:15:21;17.00;99.90
3416;DHT22;1721;51.238;9.562;2023-07-02T05:17:46;16.90;99.90
3416;DHT22;1721;51.238;9.562;2023-07-02T05:20:12;16.90;99.90
3416;DHT22;1721;51.238;9.562;2023-07-02T05:22:38;16.90;99.90
3416;DHT22;1721;51.238;9.562;2023-07-02T05:25:03;16.90;99.90
3416;DHT22;1721;51.238;9.562;2023-07-02T05:27:29;17.00;99.90
3416;DHT22;1721;51.238;9.562;2023-07-02T05:29:54;16.90;99.90
3416;DHT22;1721;51.238;9.562;2023-07-02T05:32:20;17.00;99.90
3416;DHT22;1721;51.238;9.562;2023-07-02T05:34:46;16.90;99.90
3416;DHT22;1721;51.238;9.562;2023-07-02T05:37:11;17.10;99.90
3416;DHT22;1721;51.238;9.562;2023-07-02T05:39:37;17.10;99.90
3416;DHT22;1721;51.238;9.562;2023-07-02T05:42:04;17.10;99.90
3416;DHT22;1721;51.238;9.562;2023-07-02T05:44:29;17.00;99.90
3416;DHT22;1721;51.238;9.562;2023-07-02T05:46:55;17.20;99.90
3416;DHT22;1721;51.238;9.562;2023-07-02T05:49:20;17.40;99.90
3416;DHT22;1721;51.238;9.562;2023-07-02T05:51:46;17.40;99.90
3416;DHT22;1721;51.238;9.562;2023-07-02T05:54:11;17.40;99.90
3416;DHT22;1721;51.238;9.562;2023-07-02T05:56:37;17.40;99.90
3416;DHT22;1721;51.238;9.562;2023-07-02T05:59:03;17.40;99.90
3416;DHT22;1721;51.238;9.562;2023-07-02T06:01:28;17.40;99.90
3416;DHT22;1721;51.238;9.562;2023-07-02T06:03:54;17.50;99.90
3416;DHT22;1721;51.238;9.562;2023-07-02T06:06:21;17.50;99.90
3416;DHT22;1721;51.238;9.562;2023-07-02T06:08:48;17.60;99.90
3416;DHT22;1721;51.238;9.562;2023-07-02T06:11:14;17.60;99.90
3416;DHT22;1721;51.238;9.562;2023-07-02T06:13:40;17.50;99.90
3416;DHT22;1721;51.238;9.562;2023-07-02T06:16:06;17.50;99.90
3416;DHT22;1721;51.238;9.562;2023-07-02T06:18:31;17.40;99.90
3416;DHT22;1721;51.238;9.562;2023-07-02T06:20:57;17.50;99.90
3416;DHT22;1721;51.238;9.562;2023-07-02T06:23:24;17.80;99.90
3416;DHT22;1721;51.238;9.562;2023-07-02T06:25:49;18.10;99.90
3416;DHT22;1721;51.238;9.562;2023-07-02T06:28:18;18.40;99.90
3416;DHT22;1721;51.238;9.562;2023-07-02T06:30:44;18.70;99.90
3416;DHT22;1721;51.238;9.562;2023-07-02T06:33:10;19.10;99.90
3416;DHT22;1721;51.238;9.562;2023-07-02T06:35:35;19.10;99.90
3416;DHT22;1721;51.238;9.562;2023-07-02T06:38:01;19.20;99.40
3416;DHT22;1721;51.238;9.562;2023-07-02T06:40:26;19.20;99.70
3416;DHT22;1721;51.238;9.562;2023-07-02T06:42:52;19.20;99.90
3416;DHT22;1721;51.238;9.562;2023-07-02T06:45:17;19.10;99.10
3416;DHT22;1721;51.238;9.562;2023-07-02T06:47:43;19.20;99.60
3416;DHT22;1721;51.238;9.562;2023-07-02T06:50:09;19.00;99.20
3416;DHT22;1721;51.238;9.562;2023-07-02T06:52:35;19.10;99.60
3416;DHT22;1721;51.238;9.562;2023-07-02T06:55:02;19.00;99.90
3416;DHT22;1721;51.238;9.562;2023-07-02T06:57:28;19.20;99.90
3416;DHT22;1721;51.238;9.562;2023-07-02T06:59:58;19.50;99.50
3416;DHT22;1721;51.238;9.562;2023-07-02T07:02:24;19.80;98.20
3416;DHT22;1721;51.238;9.562;2023-07-02T07:04:50;20.10;98.50
3416;DHT22;1721;51.238;9.562;2023-07-02T07:07:15;20.30;98.40
3416;DHT22;1721;51.238;9.562;2023-07-02T07:09:41;20.30;97.60
3416;DHT22;1721;51.238;9.562;2023-07-02T07:12:07;20.40;96.90
3416;DHT22;1721;51.238;9.562;2023-07-02T07:14:32;20.30;96.30
3416;DHT22;1721;51.238;9.562;2023-07-02T07:16:58;20.20;96.30
3416;DHT22;1721;51.238;9.562;2023-07-02T07:19:23;20.00;96.10
3416;DHT22;1721;51.238;9.562;2023-07-02T07:21:49;19.90;96.80
3416;DHT22;1721;51.238;9.562;2023-07-02T07:24:14;19.90;96.50
3416;DHT22;1721;51.238;9.562;2023-07-02T07:26:40;19.70;96.60
3416;DHT22;1721;51.238;9.562;2023-07-02T07:29:05;19.70;96.70
3416;DHT22;1721;51.238;9.562;2023-07-02T07:31:31;19.60;96.60
3416;DHT22;1721;51.238;9.562;2023-07-02T07:33:56;19.40;96.20
3416;DHT22;1721;51.238;9.562;2023-07-02T07:36:22;19.30;96.80
3416;DHT22;1721;51.238;9.562;2023-07-02T07:38:47;19.30;96.90
3416;DHT22;1721;51.238;9.562;2023-07-02T07:41:13;19.20;96.80
3416;DHT22;1721;51.238;9.562;2023-07-02T07:43:38;19.10;97.30
3416;DHT22;1721;51.238;9.562;2023-07-02T07:46:04;19.10;96.90
3416;DHT22;1721;51.238;9.562;2023-07-02T07:48:29;19.20;97.00
3416;DHT22;1721;51.238;9.562;2023-07-02T07:50:55;19.20;96.40
3416;DHT22;1721;51.238;9.562;2023-07-02T07:53:21;19.20;96.90
3416;DHT22;1721;51.238;9.562;2023-07-02T07:55:46;19.10;96.80
3416;DHT22;1721;51.238;9.562;2023-07-02T07:58:12;19.00;96.70
3416;DHT22;1721;51.238;9.562;2023-07-02T08:00:37;19.00;97.10
3416;DHT22;1721;51.238;9.562;2023-07-02T08:03:03;19.00;97.40
3416;DHT22;1721;51.238;9.562;2023-07-02T08:05:30;19.00;96.80
3416;DHT22;1721;51.238;9.562;2023-07-02T08:07:55;19.00;96.60
3416;DHT22;1721;51.238;9.562;2023-07-02T08:10:21;19.00;97.20
3416;DHT22;1721;51.238;9.562;2023-07-02T08:12:46;19.00;97.40
3416;DHT22;1721;51.238;9.562;2023-07-02T08:15:13;19.10;97.00
3416;DHT22;1721;51.238;9.562;2023-07-02T08:17:39;19.20;97.20
3416;DHT22;1721;51.238;9.562;2023-07-02T08:20:05;19.20;97.10
3416;DHT22;1721;51.238;9.562;2023-07-02T08:22:35;19.30;96.90
3416;DHT22;1721;51.238;9.562;2023-07-02T08:25:01;19.60;98.00
3416;DHT22;1721;51.238;9.562;2023-07-02T08:27:26;19.80;97.80
3416;DHT22;1721;51.238;9.562;2023-07-02T08:29:52;20.10;97.10
3416;DHT22;1721;51.238;9.562;2023-07-02T08:32:17;20.10;96.00
3416;DHT22;1721;51.238;9.562;2023-07-02T08:34:43;20.20;95.00
3416;DHT22;1721;51.238;9.562;2023-07-02T08:37:09;20.50;96.10
3416;DHT22;1721;51.238;9.562;2023-07-02T08:39:34;21.00;97.60
3416;DHT22;1721;51.238;9.562;2023-07-02T08:42:01;21.50;97.10
3416;DHT22;1721;51.238;9.562;2023-07-02T08:44:27;21.70;94.10
3416;DHT22;1721;51.238;9.562;2023-07-02T08:46:52;21.30;93.70
3416;DHT22;1721;51.238;9.562;2023-07-02T08:49:21;21.00;94.40
3416;DHT22;1721;51.238;9.562;2023-07-02T08:51:47;20.90;93.80
3416;DHT22;1721;51.238;9.562;2023-07-02T08:54:13;20.80;93.30
3416;DHT22;1721;51.238;9.562;2023-07-02T08:56:40;20.80;94.40
3416;DHT22;1721;51.238;9.562;2023-07-02T08:59:09;20.80;94.50
3416;DHT22;1721;51.238;9.562;2023-07-02T09:01:51;20.80;93.30
3416;DHT22;1721;51.238;9.562;2023-07-02T09:04:24;20.60;93.40
3416;DHT22;1721;51.238;9.562;2023-07-02T09:07:06;20.60;93.50
3416;DHT22;1721;51.238;9.562;2023-07-02T09:09:32;20.60;92.50
3416;DHT22;1721;51.238;9.562;2023-07-02T09:11:58;20.50;93.60
3416;DHT22;1721;51.238;9.562;2023-07-02T09:14:30;20.70;94.10
3416;DHT22;1721;51.238;9.562;2023-07-02T09:17:07;20.90;93.10
3416;DHT22;1721;51.238;9.562;2023-07-02T09:19:35;21.10;92.40
3416;DHT22;1721;51.238;9.562;2023-07-02T09:22:01;21.30;92.40
3416;DHT22;1721;51.238;9.562;2023-07-02T09:24:28;21.50;91.80
3416;DHT22;1721;51.238;9.562;2023-07-02T09:26:59;21.60;92.10
3416;DHT22;1721;51.238;9.562;2023-07-02T09:29:26;21.80;92.10
3416;DHT22;1721;51.238;9.562;2023-07-02T09:31:54;22.00;91.60
3416;DHT22;1721;51.238;9.562;2023-07-02T09:34:29;22.10;90.20
3416;DHT22;1721;51.238;9.562;2023-07-02T09:36:59;21.90;88.90
3416;DHT22;1721;51.238;9.562;2023-07-02T09:39:32;21.70;90.20
3416;DHT22;1721;51.238;9.562;2023-07-02T09:41:59;21.70;91.00
3416;DHT22;1721;51.238;9.562;2023-07-02T09:44:29;21.70;91.00
3416;DHT22;1721;51.238;9.562;2023-07-02T09:47:01;21.50;90.30
3416;DHT22;1721;51.238;9.562;2023-07-02T09:49:31;21.40;89.90
3416;DHT22;1721;51.238;9.562;2023-07-02T09:52:08;21.10;86.60
3416;DHT22;1721;51.238;9.562;2023-07-02T09:54:34;20.80;87.00
3416;DHT22;1721;51.238;9.562;2023-07-02T09:57:01;20.60;89.00
3416;DHT22;1721;51.238;9.562;2023-07-02T09:59:27;20.40;90.00
3416;DHT22;1721;51.238;9.562;2023-07-02T10:01:54;20.40;90.60
3416;DHT22;1721;51.238;9.562;2023-07-02T10:04:21;20.30;90.80
3416;DHT22;1721;51.238;9.562;2023-07-02T10:06:54;20.40;92.10
3416;DHT22;1721;51.238;9.562;2023-07-02T10:09:40;20.80;92.30
3416;DHT22;1721;51.238;9.562;2023-07-02T10:15:01;21.50;91.80
3416;DHT22;1721;51.238;9.562;2023-07-02T10:19:58;22.10;89.90
3416;DHT22;1721;51.238;9.562;2023-07-02T10:22:24;22.10;85.80
3416;DHT22;1721;51.238;9.562;2023-07-02T10:24:56;21.90;82.30
3416;DHT22;1721;51.238;9.562;2023-07-02T10:27:37;21.90;84.30
3416;DHT22;1721;51.238;9.562;2023-07-02T10:30:04;22.00;89.90
3416;DHT22;1721;51.238;9.562;2023-07-02T10:32:30;22.10;82.90
3416;DHT22;1721;51.238;9.562;2023-07-02T10:34:56;22.30;84.10
3416;DHT22;1721;51.238;9.562;2023-07-02T10:37:24;22.00;80.50
3416;DHT22;1721;51.238;9.562;2023-07-02T10:39:49;21.70;81.60
3416;DHT22;1721;51.238;9.562;2023-07-02T10:42:15;21.50;83.50
3416;DHT22;1721;51.238;9.562;2023-07-02T10:44:49;21.30;82.80
3416;DHT22;1721;51.238;9.562;2023-07-02T10:47:15;21.20;83.10
3416;DHT22;1721;51.238;9.562;2023-07-02T10:49:40;21.30;83.20
3416;DHT22;1721;51.238;9.562;2023-07-02T10:52:06;21.30;81.80
3416;DHT22;1721;51.238;9.562;2023-07-02T10:54:53;21.20;82.00
3416;DHT22;1721;51.238;9.562;2023-07-02T10:57:19;21.00;81.60
3416;DHT22;1721;51.238;9.562;2023-07-02T10:59:48;21.00;83.70
3416;DHT22;1721;51.238;9.562;2023-07-02T11:02:14;21.10;81.30
3416;DHT22;1721;51.238;9.562;2023-07-02T11:04:40;21.00;83.10
3416;DHT22;1721;51.238;9.562;2023-07-02T11:07:06;21.10;82.10
3416;DHT22;1721;51.238;9.562;2023-07-02T11:09:32;21.30;79.60
3416;DHT22;1721;51.238;9.562;2023-07-02T11:11:59;21.30;80.10
3416;DHT22;1721;51.238;9.562;2023-07-02T11:16:54;21.80;82.40
3416;DHT22;1721;51.238;9.562;2023-07-02T11:19:20;22.00;79.00
3416;DHT22;1721;51.238;9.562;2023-07-02T11:21:54;22.10;80.30
3416;DHT22;1721;51.238;9.562;2023-07-02T11:24:35;22.30;79.40
3416;DHT22;1721;51.238;9.562;2023-07-02T11:27:02;22.20;76.90
3416;DHT22;1721;51.238;9.562;2023-07-02T11:29:32;21.90;75.90
3416;DHT22;1721;51.238;9.562;2023-07-02T11:32:11;21.50;77.20
3416;DHT22;1721;51.238;9.562;2023-07-02T11:34:38;21.60;77.90
3416;DHT22;1721;51.238;9.562;2023-07-02T11:37:04;21.50;80.40
3416;DHT22;1721;51.238;9.562;2023-07-02T11:39:30;21.50;80.60
3416;DHT22;1721;51.238;9.562;2023-07-02T11:41:56;21.60;80.20
3416;DHT22;1721;51.238;9.562;2023-07-02T11:44:22;21.70;78.10
3416;DHT22;1721;51.238;9.562;2023-07-02T11:46:48;21.80;80.90
3416;DHT22;1721;51.238;9.562;2023-07-02T11:49:14;21.70;78.50
3416;DHT22;1721;51.238;9.562;2023-07-02T11:51:41;21.70;81.40
3416;DHT22;1721;51.238;9.562;2023-07-02T11:54:12;21.80;78.60
3416;DHT22;1721;51.238;9.562;2023-07-02T11:56:37;21.90;76.10
3416;DHT22;1721;51.238;9.562;2023-07-02T11:59:03;21.80;77.00
3416;DHT22;1721;51.238;9.562;2023-07-02T12:01:29;21.70;76.80
3416;DHT22;1721;51.238;9.562;2023-07-02T12:03:55;21.70;76.70
3416;DHT22;1721;51.238;9.562;2023-07-02T12:06:20;21.60;76.40
3416;DHT22;1721;51.238;9.562;2023-07-02T12:08:46;21.40;79.40
3416;DHT22;1721;51.238;9.562;2023-07-02T12:11:11;21.70;79.50
3416;DHT22;1721;51.238;9.562;2023-07-02T12:13:37;22.00;77.70
3416;DHT22;1721;51.238;9.562;2023-07-02T12:16:02;22.40;77.90
3416;DHT22;1721;51.238;9.562;2023-07-02T12:18:28;22.70;76.00
3416;DHT22;1721;51.238;9.562;2023-07-02T12:20:54;22.70;75.30
3416;DHT22;1721;51.238;9.562;2023-07-02T12:23:19;22.70;73.10
3416;DHT22;1721;51.238;9.562;2023-07-02T12:25:45;22.50;71.80
3416;DHT22;1721;51.238;9.562;2023-07-02T12:28:11;22.30;73.30
3416;DHT22;1721;51.238;9.562;2023-07-02T12:30:37;22.10;73.90
3416;DHT22;1721;51.238;9.562;2023-07-02T12:33:02;22.00;75.40
3416;DHT22;1721;51.238;9.562;2023-07-02T12:35:28;22.10;75.60
3416;DHT22;1721;51.238;9.562;2023-07-02T12:37:54;22.10;74.10
3416;DHT22;1721;51.238;9.562;2023-07-02T12:40:20;22.00;76.60
3416;DHT22;1721;51.238;9.562;2023-07-02T12:42:46;22.10;76.70
3416;DHT22;1721;51.238;9.562;2023-07-02T12:45:13;22.20;76.70
3416;DHT22;1721;51.238;9.562;2023-07-02T12:47:43;22.30;78.70
3416;DHT22;1721;51.238;9.562;2023-07-02T12:50:10;22.70;76.80
3416;DHT22;1721;51.238;9.562;2023-07-02T12:52:36;22.70;77.50
3416;DHT22;1721;51.238;9.562;2023-07-02T12:55:02;22.90;78.70
3416;DHT22;1721;51.238;9.562;2023-07-02T12:57:28;22.90;74.40
3416;DHT22;1721;51.238;9.562;2023-07-02T12:59:54;22.80;76.00
3416;DHT22;1721;51.238;9.562;2023-07-02T13:02:21;22.90;77.00
3416;DHT22;1721;51.238;9.562;2023-07-02T13:04:46;22.90;76.90
3416;DHT22;1721;51.238;9.562;2023-07-02T13:07:12;23.10;78.60
3416;DHT22;1721;51.238;9.562;2023-07-02T13:09:37;23.20;73.40
3416;DHT22;1721;51.238;9.562;2023-07-02T13:12:04;23.20;77.10
3416;DHT22;1721;51.238;9.562;2023-07-02T13:14:30;23.30;77.20
3416;DHT22;1721;51.238;9.562;2023-07-02T13:16:55;23.50;73.20
3416;DHT22;1721;51.238;9.562;2023-07-02T13:19:21;23.40;74.40
3416;DHT22;1721;51.238;9.562;2023-07-02T13:21:46;23.40;73.90
3416;DHT22;1721;51.238;9.562;2023-07-02T13:24:12;23.40;76.50
3416;DHT22;1721;51.238;9.562;2023-07-02T13:26:38;23.50;75.30
3416;DHT22;1721;51.238;9.562;2023-07-02T13:29:03;23.40;72.30
3416;DHT22;1721;51.238;9.562;2023-07-02T13:31:29;23.30;73.30
3416;DHT22;1721;51.238;9.562;2023-07-02T13:33:54;22.90;74.20
3416;DHT22;1721;51.238;9.562;2023-07-02T13:36:20;22.70;77.10
3416;DHT22;1721;51.238;9.562;2023-07-02T13:38:46;22.50;76.90
3416;DHT22;1721;51.238;9.562;2023-07-02T13:41:11;22.30;76.00
3416;DHT22;1721;51.238;9.562;2023-07-02T13:43:37;22.10;78.30
3416;DHT22;1721;51.238;9.562;2023-07-02T13:46:03;21.90;76.30
3416;DHT22;1721;51.238;9.562;2023-07-02T13:48:28;22.10;74.50
3416;DHT22;1721;51.238;9.562;2023-07-02T13:50:54;22.20;76.10
3416;DHT22;1721;51.238;9.562;2023-07-02T13:53:20;22.50;75.60
3416;DHT22;1721;51.238;9.562;2023-07-02T13:55:46;22.70;75.00
3416;DHT22;1721;51.238;9.562;2023-07-02T13:58:11;22.70;73.80
3416;DHT22;1721;51.238;9.562;2023-07-02T14:00:37;22.60;75.60
3416;DHT22;1721;51.238;9.562;2023-07-02T14:03:03;22.60;75.90
3416;DHT22;1721;51.238;9.562;2023-07-02T14:05:29;22.70;74.90
3416;DHT22;1721;51.238;9.562;2023-07-02T14:07:54;22.80;76.80
3416;DHT22;1721;51.238;9.562;2023-07-02T14:10:20;22.40;74.70
3416;DHT22;1721;51.238;9.562;2023-07-02T14:12:46;22.00;76.00
3416;DHT22;1721;51.238;9.562;2023-07-02T14:15:12;21.90;77.40
3416;DHT22;1721;51.238;9.562;2023-07-02T14:17:38;21.80;76.70
3416;DHT22;1721;51.238;9.562;2023-07-02T14:20:05;21.70;76.90
3416;DHT22;1721;51.238;9.562;2023-07-02T14:22:31;21.70;78.30
3416;DHT22;1721;51.238;9.562;2023-07-02T14:24:57;22.00;77.70
3416;DHT22;1721;51.238;9.562;2023-07-02T14:27:22;22.10;76.20
3416;DHT22;1721;51.238;9.562;2023-07-02T14:29:48;22.30;79.20
3416;DHT22;1721;51.238;9.562;2023-07-02T14:32:14;22.20;75.80
3416;DHT22;1721;51.238;9.562;2023-07-02T14:34:40;22.10;78.10
3416;DHT22;1721;51.238;9.562;2023-07-02T14:37:06;21.90;76.20
3416;DHT22;1721;51.238;9.562;2023-07-02T14:39:32;21.80;79.70
3416;DHT22;1721;51.238;9.562;2023-07-02T14:41:58;22.00;78.10
3416;DHT22;1721;51.238;9.562;2023-07-02T14:44:24;22.20;77.40
3416;DHT22;1721;51.238;9.562;2023-07-02T14:46:50;22.00;78.00
3416;DHT22;1721;51.238;9.562;2023-07-02T14:49:16;21.80;76.10
3416;DHT22;1721;51.238;9.562;2023-07-02T14:51:42;21.60;78.10
3416;DHT22;1721;51.238;9.562;2023-07-02T14:54:07;21.50;77.50
3416;DHT22;1721;51.238;9.562;2023-07-02T14:56:34;21.30;77.70
3416;DHT22;1721;51.238;9.562;2023-07-02T14:59:02;21.20;78.00
3416;DHT22;1721;51.238;9.562;2023-07-02T15:01:27;21.30;79.00
3416;DHT22;1721;51.238;9.562;2023-07-02T15:03:53;21.50;79.60
3416;DHT22;1721;51.238;9.562;2023-07-02T15:06:19;21.80;79.20
3416;DHT22;1721;51.238;9.562;2023-07-02T15:08:45;22.10;79.10
3416;DHT22;1721;51.238;9.562;2023-07-02T15:11:13;22.30;82.00
3416;DHT22;1721;51.238;9.562;2023-07-02T15:13:39;22.50;80.00
3416;DHT22;1721;51.238;9.562;2023-07-02T15:16:07;22.40;76.40
3416;DHT22;1721;51.238;9.562;2023-07-02T15:18:33;22.20;77.10
3416;DHT22;1721;51.238;9.562;2023-07-02T15:20:58;22.10;77.60
3416;DHT22;1721;51.238;9.562;2023-07-02T15:23:24;21.90;77.80
3416;DHT22;1721;51.238;9.562;2023-07-02T15:25:58;21.90;78.50
3416;DHT22;1721;51.238;9.562;2023-07-02T15:28:25;21.80;78.10
3416;DHT22;1721;51.238;9.562;2023-07-02T15:30:56;21.80;78.80
3416;DHT22;1721;51.238;9.562;2023-07-02T15:33:22;21.80;79.70
3416;DHT22;1721;51.238;9.562;2023-07-02T15:35:48;21.80;77.60
3416;DHT22;1721;51.238;9.562;2023-07-02T15:38:14;21.80;78.70
3416;DHT22;1721;51.238;9.562;2023-07-02T15:40:40;21.80;79.20
3416;DHT22;1721;51.238;9.562;2023-07-02T15:43:05;21.70;78.40
3416;DHT22;1721;51.238;9.562;2023-07-02T15:45:31;21.70;76.90
3416;DHT22;1721;51.238;9.562;2023-07-02T15:47:57;21.80;78.80
3416;DHT22;1721;51.238;9.562;2023-07-02T15:50:23;21.90;76.90
3416;DHT22;1721;51.238;9.562;2023-07-02T15:52:49;21.80;76.90
3416;DHT22;1721;51.238;9.562;2023-07-02T15:55:17;21.80;74.80
3416;DHT22;1721;51.238;9.562;2023-07-02T15:57:43;21.70;76.00
3416;DHT22;1721;51.238;9.562;2023-07-02T16:00:09;21.70;75.00
3416;DHT22;1721;51.238;9.562;2023-07-02T16:02:35;21.70;75.20
3416;DHT22;1721;51.238;9.562;2023-07-02T16:05:00;21.50;72.70
3416;DHT22;1721;51.238;9.562;2023-07-02T16:07:26;21.10;74.80